createdAt,value
2018-08-20T05:38:49.953Z,5.70
2018-08-20T05:43:47.738Z,5.12
2018-08-20T05:48:45.455Z,5.10
2018-08-20T05:53:43.189Z,4.58
2018-08-20T05:58:40.910Z,5.15
2018-08-20T06:03:38.638Z,5.17
2018-08-20T06:08:36.378Z,5.87
2018-08-20T06:13:34.110Z,4.95
2018-08-20T06:18:31.886Z,4.55
2018-08-20T06:23:29.656Z,4.75
2018-08-20T06:28:28.088Z,5.10
2018-08-20T06:33:25.903Z,4.60
2018-08-20T06:38:23.702Z,4.58
2018-08-20T06:43:33.929Z,5.35
2018-08-20T06:48:31.701Z,5.15
2018-08-20T06:53:35.654Z,4.83
2018-08-20T06:58:33.554Z,4.80
2018-08-20T07:03:31.719Z,5.20
2018-08-20T07:08:29.549Z,4.50
2018-08-20T07:13:51.088Z,5.28
2018-08-20T07:18:48.903Z,4.67
2018-08-20T07:23:46.641Z,4.60
2018-08-20T07:28:44.388Z,4.85
2018-08-20T07:34:01.242Z,4.20
2018-08-20T07:38:58.997Z,3.90
2018-08-20T07:49:21.133Z,4.85
2018-08-20T07:54:18.850Z,4.55
2018-08-20T07:59:16.561Z,4.70
2018-08-20T08:04:14.414Z,5.08
2018-08-20T08:09:12.186Z,4.80
2018-08-20T08:14:09.912Z,5.12
2018-08-20T08:19:07.725Z,5.35
2018-08-20T08:24:05.429Z,4.78
2018-08-20T08:29:03.242Z,5.30
2018-08-20T08:34:00.989Z,4.90
2018-08-20T08:38:58.721Z,5.08
2018-08-20T08:49:19.401Z,4.40
2018-08-20T08:54:17.140Z,5.25
2018-08-20T08:59:14.928Z,5.35
2018-08-20T09:04:12.706Z,5.20
2018-08-20T09:09:10.434Z,4.53
2018-08-20T09:14:08.212Z,4.53
2018-08-20T09:19:05.965Z,4.40
2018-08-20T09:24:03.810Z,4.83
2018-08-20T09:29:01.518Z,3.90
2018-08-20T09:33:59.269Z,4.30
2018-08-20T09:38:57.013Z,4.75
2018-08-20T09:43:54.733Z,3.65
2018-08-20T09:48:52.477Z,4.62
2018-08-20T09:53:50.291Z,5.22
2018-08-20T09:58:48.031Z,4.30
2018-08-20T10:03:46.313Z,4.05
2018-08-20T10:08:44.238Z,4.70
2018-08-20T10:13:41.914Z,4.33
2018-08-20T10:18:39.678Z,4.90
2018-08-20T10:23:37.406Z,4.58
2018-08-20T10:28:35.128Z,5.37
2018-08-20T10:33:32.875Z,4.60
2018-08-20T10:38:30.614Z,5.00
2018-08-20T10:43:28.313Z,4.58
2018-08-20T10:48:26.222Z,4.87
2018-08-20T10:53:24.029Z,5.00
2018-08-20T10:58:21.825Z,4.67
2018-08-20T11:03:19.602Z,5.08
2018-08-20T11:08:17.325Z,4.00
2018-08-20T11:13:15.178Z,4.05
2018-08-20T11:18:13.003Z,4.20
2018-08-20T11:23:10.666Z,4.35
2018-08-20T11:28:08.417Z,4.08
2018-08-20T11:33:07.272Z,3.85
2018-08-20T11:38:05.569Z,4.17
2018-08-20T11:43:03.364Z,3.72
2018-08-20T11:48:01.109Z,3.95
2018-08-20T11:52:58.809Z,3.80
2018-08-20T11:57:56.554Z,4.10
2018-08-20T12:02:54.283Z,4.20
2018-08-20T12:07:52.005Z,3.72
2018-08-20T12:12:49.803Z,4.00
2018-08-20T12:17:47.557Z,4.53
2018-08-20T12:22:57.530Z,4.00
2018-08-20T12:27:55.205Z,3.87
2018-08-20T12:32:52.941Z,4.15
2018-08-20T12:37:50.649Z,4.03
2018-08-20T12:42:48.357Z,4.03
2018-08-20T12:47:46.081Z,3.65
2018-08-20T12:52:43.796Z,3.92
2018-08-20T12:57:41.556Z,3.70
2018-08-20T13:02:39.321Z,3.72
2018-08-20T13:07:37.034Z,3.92
2018-08-20T13:12:34.742Z,3.98
2018-08-20T13:17:32.457Z,4.22
2018-08-20T13:22:30.195Z,3.85
2018-08-20T13:27:27.897Z,3.83
2018-08-20T13:32:25.650Z,4.17
2018-08-20T13:37:23.496Z,3.80
2018-08-20T13:42:21.146Z,4.08
2018-08-20T13:47:18.854Z,3.70
2018-08-20T13:52:16.715Z,4.12
2018-08-20T13:57:14.437Z,3.83
2018-08-20T14:02:12.166Z,4.37
2018-08-20T14:07:09.897Z,3.83
2018-08-20T14:12:07.629Z,3.92
2018-08-20T14:17:05.363Z,3.45
2018-08-20T14:22:03.146Z,4.05
2018-08-20T14:27:00.875Z,4.15
2018-08-20T14:31:58.585Z,3.87
2018-08-20T14:36:56.406Z,3.85
2018-08-20T14:41:54.069Z,3.62
2018-08-20T14:46:51.773Z,3.98
2018-08-20T14:51:49.465Z,4.03
2018-08-20T14:56:47.188Z,3.90
2018-08-20T15:01:44.906Z,3.67
2018-08-20T15:06:57.050Z,3.77
2018-08-20T15:11:55.338Z,3.45
2018-08-20T15:16:53.643Z,3.80
2018-08-20T15:21:51.366Z,3.45
2018-08-20T15:26:49.901Z,4.45
2018-08-20T15:31:47.705Z,4.12
2018-08-20T15:36:45.528Z,4.03
2018-08-20T15:41:43.249Z,4.85
2018-08-20T15:46:40.977Z,4.30
2018-08-20T15:51:38.702Z,4.58
2018-08-20T15:56:36.406Z,5.08
2018-08-20T16:01:34.135Z,4.37
2018-08-20T16:06:31.873Z,4.03
2018-08-20T16:11:29.625Z,4.92
2018-08-20T16:16:27.326Z,5.00
2018-08-20T16:21:25.029Z,5.12
2018-08-20T16:26:22.749Z,5.10
2018-08-20T16:31:20.517Z,5.00
2018-08-20T16:36:18.277Z,5.20
2018-08-20T16:41:16.057Z,5.40
2018-08-20T16:46:13.801Z,4.95
2018-08-20T16:51:11.737Z,4.83
2018-08-20T16:56:09.464Z,4.90
2018-08-20T17:01:13.153Z,5.50
2018-08-20T17:06:10.851Z,5.35
2018-08-20T17:11:08.721Z,5.10
2018-08-20T17:16:09.222Z,5.65
2018-08-20T17:21:07.032Z,5.67
2018-08-20T17:26:05.226Z,5.33
2018-08-20T17:31:06.454Z,5.15
2018-08-20T17:36:06.884Z,5.90
2018-08-20T17:41:07.178Z,4.85
2018-08-20T18:09:30.045Z,4.65
2018-08-20T18:14:27.802Z,4.42
2018-08-20T18:19:25.624Z,4.00
2018-08-20T18:24:23.297Z,4.03
2018-08-20T18:29:21.149Z,3.83
2018-08-20T18:34:19.007Z,3.95
2018-08-20T18:39:16.890Z,3.55
2018-08-20T18:44:14.678Z,4.33
2018-08-20T18:49:12.446Z,3.80
2018-08-20T18:54:10.206Z,3.70
2018-08-20T18:59:07.921Z,3.65
2018-08-20T19:04:05.718Z,3.65
2018-08-20T19:09:04.210Z,4.15
2018-08-20T19:14:06.510Z,3.58
2018-08-20T19:19:05.109Z,4.00
2018-08-20T19:24:02.833Z,3.90
2018-08-20T19:29:10.506Z,3.40
